createdAt,value
2019-06-01T00:08:24.344Z,18.40
2019-06-01T00:18:25.911Z,18.30
2019-06-01T00:28:27.974Z,18.20
2019-06-01T00:38:29.403Z,18.10
2019-06-01T00:48:31.374Z,18.10
2019-06-01T00:58:33.484Z,18.00
2019-06-01T01:08:35.731Z,17.90
2019-06-01T01:18:37.395Z,17.80
2019-06-01T01:28:39.347Z,17.70
2019-06-01T01:38:41.266Z,17.60
2019-06-01T01:48:43.281Z,17.50
2019-06-01T01:58:45.343Z,17.30
2019-06-01T02:08:47.343Z,17.20
2019-06-01T02:18:49.634Z,17.20
2019-06-01T02:28:51.148Z,17.00
2019-06-01T02:38:54.625Z,16.70
2019-06-01T02:48:57.359Z,16.70
2019-06-01T02:59:00.354Z,16.80
2019-06-01T03:09:06.735Z,16.80
2019-06-01T03:19:09.632Z,16.80
2019-06-01T03:29:14.048Z,16.70
2019-06-01T03:39:16.521Z,16.60
2019-06-01T03:49:18.480Z,16.40
2019-06-01T03:59:21.540Z,16.30
2019-06-01T04:09:23.603Z,16.40
2019-06-01T04:19:25.684Z,16.50
2019-06-01T04:29:27.936Z,16.40
2019-06-01T04:39:29.903Z,16.50
2019-06-01T04:49:31.867Z,16.60
2019-06-01T04:59:37.692Z,16.60
2019-06-01T05:09:38.294Z,16.70
2019-06-01T05:19:40.311Z,16.70
2019-06-01T05:29:42.584Z,16.90
2019-06-01T05:39:44.139Z,17.00
2019-06-01T05:49:46.119Z,17.10
2019-06-01T05:59:48.282Z,17.40
2019-06-01T06:09:49.773Z,17.60
2019-06-01T06:19:51.748Z,17.80
2019-06-01T06:29:53.868Z,17.70
2019-06-01T06:39:55.301Z,18.00
2019-06-01T06:49:57.253Z,18.30
2019-06-01T06:59:59.261Z,18.60
2019-06-01T07:10:01.375Z,18.90
2019-06-01T07:20:03.200Z,19.20
2019-06-01T07:30:05.786Z,19.50
2019-06-01T07:40:13.129Z,19.80
2019-06-01T07:50:12.142Z,20.20
2019-06-01T08:00:16.064Z,20.50
2019-06-01T08:10:18.097Z,20.70
2019-06-01T08:20:20.067Z,21.00
2019-06-01T08:30:22.571Z,21.30
2019-06-01T08:40:25.269Z,21.60
2019-06-01T08:50:27.728Z,21.90
2019-06-01T09:00:30.622Z,22.20
2019-06-01T09:10:33.271Z,22.50
2019-06-01T09:20:38.720Z,22.80
2019-06-01T09:30:39.638Z,23.10
2019-06-01T09:40:41.603Z,23.40
2019-06-01T09:50:43.859Z,23.70
2019-06-01T10:00:46.839Z,23.90
2019-06-01T10:10:48.876Z,24.10
2019-06-01T10:20:50.873Z,24.40
2019-06-01T10:30:52.881Z,24.80
2019-06-01T10:40:54.887Z,24.90
2019-06-01T10:50:57.021Z,24.90
2019-06-01T11:00:59.017Z,25.50
2019-06-01T11:11:01.036Z,26.00
2019-06-01T11:21:03.192Z,26.40
2019-06-01T11:31:05.289Z,27.10
2019-06-01T11:41:07.373Z,27.90
2019-06-01T11:51:09.450Z,29.40
2019-06-01T12:01:11.460Z,42.10
2019-06-01T12:11:13.437Z,50.30
2019-06-01T12:21:15.801Z,54.10
2019-06-01T12:31:17.842Z,57.60
2019-06-01T12:41:21.556Z,59.30
2019-06-01T12:51:23.545Z,61.20
2019-06-01T13:01:25.568Z,63.80
2019-06-01T13:11:27.625Z,62.30
2019-06-01T13:21:29.624Z,59.70
2019-06-01T13:31:52.495Z,46.60
2019-06-01T13:41:55.039Z,38.70
2019-06-01T13:51:57.808Z,35.00
2019-06-01T14:02:00.518Z,34.00
2019-06-01T14:12:02.913Z,33.20
2019-06-01T14:22:05.072Z,31.80
2019-06-01T14:32:07.016Z,31.40
2019-06-01T14:42:09.016Z,31.50
2019-06-01T14:52:10.939Z,31.20
2019-06-01T15:02:12.955Z,30.90
2019-06-01T15:12:15.190Z,30.30
2019-06-01T15:22:17.126Z,29.90
2019-06-01T15:32:19.312Z,29.60
2019-06-01T15:42:21.388Z,29.20
2019-06-01T15:52:23.346Z,29.00
2019-06-01T16:02:25.439Z,28.70
2019-06-01T16:12:27.439Z,28.80
2019-06-01T16:22:29.737Z,28.90
2019-06-01T16:32:31.784Z,28.90
2019-06-01T16:42:33.795Z,28.90
2019-06-01T16:52:35.782Z,33.50
2019-06-01T17:02:37.827Z,36.90
2019-06-01T17:12:43.304Z,33.50
2019-06-01T17:22:44.044Z,31.10
2019-06-01T17:32:46.082Z,29.50
2019-06-01T17:42:48.225Z,28.30
2019-06-01T17:52:50.290Z,27.50
2019-06-01T18:02:52.744Z,27.10
2019-06-01T18:12:55.096Z,26.80
2019-06-01T18:22:57.084Z,26.60
2019-06-01T18:32:59.290Z,26.20
2019-06-01T18:43:06.078Z,25.80
2019-06-01T18:53:09.973Z,25.50
2019-06-01T19:03:13.510Z,25.20
2019-06-01T19:13:16.009Z,25.00
2019-06-01T19:23:21.344Z,24.80
2019-06-01T19:33:22.133Z,24.60
2019-06-01T19:43:24.092Z,24.30
2019-06-01T19:53:26.275Z,24.10
2019-06-01T20:03:28.392Z,23.90
2019-06-01T20:13:30.431Z,23.70
2019-06-01T20:23:32.472Z,23.50
2019-06-01T20:33:34.435Z,23.40
2019-06-01T20:43:36.451Z,23.30
2019-06-01T20:53:38.482Z,23.10
2019-06-01T21:03:40.743Z,23.00
2019-06-01T21:13:42.763Z,22.90
2019-06-01T21:23:44.782Z,22.80
2019-06-01T21:33:46.767Z,22.70
2019-06-01T21:43:48.764Z,22.60
2019-06-01T21:53:50.855Z,22.50
2019-06-01T22:03:52.917Z,22.50
2019-06-01T22:13:55.995Z,22.40
2019-06-01T22:23:58.070Z,22.30
2019-06-01T22:34:00.107Z,22.30
2019-06-01T22:44:03.919Z,22.20
2019-06-01T22:54:06.155Z,22.10
2019-06-01T23:04:08.276Z,21.90
2019-06-01T23:14:10.679Z,21.80
2019-06-01T23:24:12.777Z,21.70
2019-06-01T23:34:14.779Z,21.60
2019-06-01T23:44:16.778Z,21.50
2019-06-01T23:54:18.735Z,21.40
